If you wish to contribute or participate in the discussions about articles you are invited to join SKYbrary as a registered user

 Actions

Salamanca Airport

From SKYbrary Wiki

LESA
Airport
ICAO: LESA – IATA: SLM
Summary
Name Salamanca Airport
Region Europe
Territory Spain ES.gif
Location , Castilla y Leon
Serving Salamanca
Elevation 790.956 m
2,595 ft
2,595 ft790.956 m
Type medium airport
Coordinates 40° 57' 7.62" N, 5° 30' 7.15" W
Runways
Designator Length Width Surface ROPS
3/21 2500 m8,202.1 ft
60 m196.85 ft
ASP /
8/26 2010 m6,594.488 ft
122 m400.262 ft
GRE /


METAR
Observation LESA 260400Z AUTO 28010KT 6000 FEW032 06/04 Q1021
Station Salamanca / Matacan
Date/Time 26 April 2019 04:00:00
Wind direction 280°
Wind speed 10 kts
Lowest cloud amount few clouds
Temperature 6°C
Dew point 4°C
Humidity 86%
QNH 1021 hPa
Weather condition n/a